Time;durP1;ratioP1;P1;durP2;ratioP2;P2;SDS_P1;SDS_P2;PMS_P1;PMS_P2;Temp;Humidity;BMP_temperature;BMP_pressure;BME280_temperature;BME280_humidity;BME280_pressure;Samples;Min_cycle;Max_cycle;Signal;HPM_P1;HPM_P2
2022/05/06 00:01:14;;;;;;;43.85;23.85;;;;;;;13.94;65.33;102376.88;4965195;28;20034;-90
2022/05/06 00:03:40;;;;;;;39.60;24.15;;;;;;;13.95;65.34;102386.59;4969712;28;20109;-89
2022/05/06 00:06:05;;;;;;;39.20;23.42;;;;;;;14.00;65.05;102403.28;4973743;28;20022;-89
2022/05/06 00:08:30;;;;;;;37.50;22.38;;;;;;;14.00;65.03;102408.63;4988298;28;20057;-89
2022/05/06 00:10:57;;;;;;;37.70;23.40;;;;;;;13.88;65.53;102390.34;4967139;28;20462;-89
2022/05/06 00:13:22;;;;;;;43.15;24.35;;;;;;;14.00;64.77;102408.63;4973668;28;20109;-88
2022/05/06 00:15:47;;;;;;;40.15;23.73;;;;;;;14.01;65.37;102393.53;4969474;28;20084;-89
2022/05/06 00:18:13;;;;;;;40.17;24.08;;;;;;;13.92;64.68;102402.63;4993163;28;20034;-88
2022/05/06 00:20:38;;;;;;;36.35;22.90;;;;;;;13.68;65.77;102390.94;4971752;28;20130;-88
2022/05/06 00:23:03;;;;;;;38.65;23.63;;;;;;;13.44;66.49;102403.09;4969006;28;20122;-89
2022/05/06 00:25:29;;;;;;;43.55;24.55;;;;;;;13.41;66.70;102415.59;4970967;28;20031;-88
2022/05/06 00:27:55;;;;;;;40.22;23.60;;;;;;;13.36;66.44;102401.56;4974915;28;20041;-89
2022/05/06 00:30:20;;;;;;;38.40;23.70;;;;;;;13.38;66.59;102405.03;4972246;28;20034;-89
2022/05/06 00:32:45;;;;;;;45.55;25.88;;;;;;;13.38;65.98;102413.91;4972365;28;20528;-88
2022/05/06 00:35:11;;;;;;;39.67;23.75;;;;;;;13.36;65.59;102412.19;4970800;28;20398;-89
2022/05/06 00:37:36;;;;;;;37.10;22.92;;;;;;;13.33;65.74;102409.59;4967181;28;20502;-89
2022/05/06 00:40:02;;;;;;;42.95;24.33;;;;;;;13.36;66.52;102413.06;4970272;28;20152;-89
2022/05/06 00:42:27;;;;;;;36.35;23.42;;;;;;;13.08;66.46;102412.88;4971518;28;20026;-88
2022/05/06 00:44:53;;;;;;;34.42;21.83;;;;;;;13.03;66.63;102420.97;4967875;28;20037;-88
2022/05/06 00:47:22;;;;;;;36.58;22.85;;;;;;;12.62;68.58;102407.81;4963047;28;20034;-89
2022/05/06 00:49:48;;;;;;;37.70;21.92;;;;;;;12.71;67.75;102410.25;4974783;28;20113;-89
2022/05/06 00:52:16;;;;;;;40.72;23.42;;;;;;;12.82;68.05;102416.16;4963368;28;20096;-88
2022/05/06 00:54:41;;;;;;;36.65;22.45;;;;;;;12.88;67.27;102396.59;4961766;28;20378;-88
2022/05/06 00:57:07;;;;;;;42.90;23.38;;;;;;;13.02;66.71;102419.22;4972797;28;20061;-88
2022/05/06 00:59:33;;;;;;;41.35;23.38;;;;;;;13.05;66.48;102420.03;4970993;28;20050;-89
2022/05/06 01:02:19;;;;;;;38.88;24.13;;;;;;;12.96;66.68;102408.75;4965469;28;20074;-89
2022/05/06 01:04:45;;;;;;;39.75;22.92;;;;;;;12.98;67.00;102406.06;4967256;28;20065;-89
2022/05/06 01:07:10;;;;;;;37.40;23.17;;;;;;;12.92;67.13;102406.22;4965988;28;20315;-89
2022/05/06 01:09:35;;;;;;;37.47;24.17;;;;;;;12.75;67.80;102409.28;4985144;28;20061;-88
2022/05/06 01:12:02;;;;;;;34.80;22.50;;;;;;;12.77;67.36;102413.63;4963789;28;20172;-89
2022/05/06 01:14:34;;;;;;;41.22;23.65;;;;;;;12.82;67.18;102410.84;4960761;28;20035;-89
2022/05/06 01:16:59;;;;;;;38.80;23.60;;;;;;;12.83;67.32;102411.75;4961504;28;20026;-88
2022/05/06 01:19:24;;;;;;;36.30;21.92;;;;;;;12.75;67.02;102406.63;4966373;28;20030;-89
2022/05/06 01:21:53;;;;;;;39.75;22.77;;;;;;;12.83;66.82;102423.25;4970994;28;20411;-89
2022/05/06 01:24:19;;;;;;;42.42;24.10;;;;;;;12.83;66.74;102409.97;4977820;28;20101;-89
2022/05/06 01:26:59;;;;;;;39.85;24.63;;;;;;;12.83;67.28;102433.00;4966912;28;21882;-89
2022/05/06 01:29:24;;;;;;;39.97;24.98;;;;;;;12.74;67.01;102418.16;4968631;28;20037;-88
2022/05/06 01:31:53;;;;;;;40.75;24.23;;;;;;;12.68;66.99;102423.59;4968862;28;20553;-88
2022/05/06 01:34:19;;;;;;;37.40;23.77;;;;;;;12.72;67.38;102427.91;4964184;28;20073;-88
2022/05/06 01:36:50;;;;;;;41.72;25.77;;;;;;;12.63;67.05;102413.06;4973043;28;20066;-88
2022/05/06 01:39:19;;;;;;;42.47;25.80;;;;;;;12.51;67.79;102402.78;4966844;28;20394;-88
2022/05/06 01:41:51;;;;;;;39.60;24.60;;;;;;;12.49;67.72;102399.25;4963009;28;20321;-89
2022/05/06 01:44:19;;;;;;;40.33;24.88;;;;;;;12.63;67.68;102421.03;4979203;28;20058;-89
2022/05/06 01:46:45;;;;;;;40.33;26.40;;;;;;;12.56;67.68;102416.81;4967789;28;20461;-89
2022/05/06 01:49:14;;;;;;;40.45;24.83;;;;;;;12.47;67.74;102407.28;4973671;28;20034;-88
2022/05/06 01:51:42;;;;;;;41.30;26.00;;;;;;;12.57;67.46;102426.50;4968255;28;20038;-88
2022/05/06 01:54:08;;;;;;;42.35;26.15;;;;;;;12.56;67.62;102431.84;4966667;28;20445;-88
2022/05/06 01:56:34;;;;;;;39.45;25.27;;;;;;;12.40;67.82;102402.13;4971997;28;20023;-88
2022/05/06 01:58:59;;;;;;;45.03;26.45;;;;;;;12.48;68.80;102413.44;4967701;28;20041;-89
2022/05/06 02:01:24;;;;;;;44.85;26.02;;;;;;;12.46;69.49;102407.31;4986872;28;20030;-88
2022/05/06 02:06:33;;;;;;;48.88;26.77;;;;;;;12.57;69.33;102415.88;4985246;28;20064;-88
2022/05/06 02:08:59;;;;;;;50.45;27.60;;;;;;;12.45;69.38;102400.25;4988842;28;20022;-88
2022/05/06 02:11:24;;;;;;;56.65;27.70;;;;;;;12.44;70.02;102395.84;4984622;28;20038;-88
2022/05/06 02:13:50;;;;;;;48.05;26.00;;;;;;;12.59;69.81;102424.69;4991976;28;20049;-88
2022/05/06 02:16:16;;;;;;;48.47;25.92;;;;;;;12.47;70.06;102411.72;4964939;28;20935;-88
2022/05/06 02:18:42;;;;;;;51.03;26.65;;;;;;;12.46;69.73;102412.63;4972757;28;20038;-89
2022/05/06 02:21:07;;;;;;;49.33;27.23;;;;;;;12.39;70.23;102405.69;4971057;28;20109;-89
2022/05/06 02:23:32;;;;;;;54.53;26.63;;;;;;;12.46;70.33;102413.50;4968230;28;20456;-88
2022/05/06 02:25:58;;;;;;;44.80;25.58;;;;;;;12.48;69.73;102419.63;4981883;28;20026;-89
2022/05/06 02:28:24;;;;;;;47.13;25.65;;;;;;;12.34;70.60;102394.31;4974329;28;20026;-89
2022/05/06 02:33:34;;;;;;;56.30;25.25;;;;;;;12.53;70.67;102430.13;4989495;28;20504;-89
2022/05/06 02:36:00;;;;;;;47.03;26.27;;;;;;;12.48;70.23;102432.88;4978575;28;20057;-89
2022/05/06 02:38:27;;;;;;;41.78;23.85;;;;;;;12.42;69.62;102426.84;4983666;28;20136;-89
2022/05/06 02:40:52;;;;;;;41.53;22.27;;;;;;;12.35;70.62;102419.94;4989358;28;20408;-88
2022/05/06 02:43:18;;;;;;;41.30;22.48;;;;;;;12.35;69.93;102418.16;4987906;28;20038;-88
2022/05/06 02:45:44;;;;;;;37.58;21.73;;;;;;;12.22;70.58;102414.03;4973887;28;20625;-88
2022/05/06 02:48:09;;;;;;;40.17;22.25;;;;;;;12.27;70.51;102429.84;4982869;28;20418;-88
2022/05/06 02:50:35;;;;;;;42.85;22.10;;;;;;;12.22;71.14;102435.25;4973791;28;20079;-88
2022/05/06 02:53:01;;;;;;;38.72;22.20;;;;;;;12.04;70.86;102407.34;4990078;28;20034;-89
2022/05/06 02:55:27;;;;;;;40.20;22.08;;;;;;;12.14;70.95;102427.44;4989934;28;20035;-88
2022/05/06 02:57:52;;;;;;;37.95;22.85;;;;;;;12.30;70.77;102440.38;4987684;28;20057;-88
2022/05/06 03:00:18;;;;;;;44.05;23.55;;;;;;;12.20;70.93;102427.31;4973230;28;20040;-90
2022/05/06 03:02:43;;;;;;;46.53;24.30;;;;;;;12.12;71.69;102423.06;4983003;28;20034;-88
2022/05/06 03:05:09;;;;;;;58.28;25.15;;;;;;;12.21;71.94;102438.78;4987504;28;20067;-89
2022/05/06 03:07:35;;;;;;;54.00;23.10;;;;;;;12.11;71.91;102434.59;4967984;28;20461;-88
2022/05/06 03:10:01;;;;;;;48.42;22.33;;;;;;;12.03;71.43;102416.22;4985979;28;20041;-88
2022/05/06 03:12:26;;;;;;;56.15;23.00;;;;;;;12.05;72.82;102425.00;4971672;28;20038;-89
2022/05/06 03:14:56;;;;;;;44.65;22.15;;;;;;;11.97;71.64;102425.16;4990834;28;20034;-89
2022/05/06 03:17:21;;;;;;;56.55;21.02;;;;;;;11.83;72.29;102415.72;4964800;28;20439;-88
2022/05/06 03:19:46;;;;;;;38.05;21.40;;;;;;;11.81;72.28;102418.38;4989314;28;20042;-88
2022/05/06 03:22:15;;;;;;;42.33;21.27;;;;;;;11.89;72.35;102429.75;4970858;28;20049;-88
2022/05/06 03:24:41;;;;;;;48.58;22.33;;;;;;;11.86;72.25;102411.25;4988110;28;20548;-88
2022/05/06 03:27:59;;;;;;;49.72;21.30;;;;;;;11.83;72.30;102399.84;4973609;28;20172;-88
2022/05/06 03:29:51;;;;;;;40.90;20.38;;;;;;;12.01;72.39;102425.97;4995662;28;20606;-89
2022/05/06 03:32:17;;;;;;;43.35;19.67;;;;;;;12.01;72.18;102420.66;4973989;28;20022;-88
2022/05/06 03:34:42;;;;;;;45.22;20.17;;;;;;;11.92;71.79;102416.41;4974058;28;20038;-89
2022/05/06 03:37:08;;;;;;;53.30;20.05;;;;;;;11.94;72.16;102427.00;4971188;28;20034;-88
2022/05/06 03:39:33;;;;;;;42.05;19.80;;;;;;;11.80;72.10;102411.34;4976363;28;20117;-89
2022/05/06 03:41:59;;;;;;;55.95;19.92;;;;;;;11.77;72.88;102426.44;4989495;28;20120;-88
2022/05/06 03:44:24;;;;;;;47.38;20.05;;;;;;;11.72;72.64;102411.50;4991945;28;20104;-88
2022/05/06 03:46:49;;;;;;;48.53;20.02;;;;;;;11.80;72.78;102429.00;4991904;28;20401;-88
2022/05/06 03:49:14;;;;;;;62.97;19.05;;;;;;;11.77;72.73;102429.09;4972589;28;20044;-88
2022/05/06 03:51:47;;;;;;;61.00;19.23;;;;;;;11.67;73.37;102434.56;4988058;28;20034;-89
2022/05/06 03:54:13;;;;;;;53.55;20.02;;;;;;;11.68;73.08;102428.34;4994092;28;20088;-88
2022/05/06 03:56:38;;;;;;;52.60;20.25;;;;;;;11.63;73.23;102410.81;4988968;28;20029;-89
2022/05/06 03:59:03;;;;;;;77.50;20.77;;;;;;;11.68;73.42;102423.06;4970570;28;20038;-89
2022/05/06 04:01:29;;;;;;;55.97;20.15;;;;;;;11.68;73.70;102438.94;4966163;28;20038;-88
2022/05/06 04:03:54;;;;;;;51.47;20.63;;;;;;;11.66;73.44;102432.81;4986566;28;20026;-89
2022/05/06 04:06:20;;;;;;;51.67;21.80;;;;;;;11.74;73.92;102437.94;4992986;28;20030;-88
2022/05/06 04:08:46;;;;;;;57.67;20.70;;;;;;;11.68;73.85;102436.31;4971674;28;20402;-90
2022/05/06 04:11:12;;;;;;;44.17;20.60;;;;;;;11.80;74.13;102445.81;4989673;28;20463;-88
2022/05/06 04:13:38;;;;;;;40.95;19.73;;;;;;;11.87;73.75;102443.91;4990384;28;20506;-89
2022/05/06 04:16:04;;;;;;;48.33;20.00;;;;;;;11.89;73.74;102440.34;4973470;28;20116;-89
2022/05/06 04:18:30;;;;;;;45.75;21.38;;;;;;;11.81;73.76;102433.41;4975837;28;20037;-89
2022/05/06 04:23:39;;;;;;;62.45;18.60;;;;;;;11.76;73.33;102433.50;4993833;28;20340;-88
2022/05/06 04:26:09;;;;;;;53.33;20.83;;;;;;;11.74;74.35;102438.81;4973239;28;20108;-88
2022/05/06 04:28:35;;;;;;;40.65;19.25;;;;;;;11.79;74.48;102443.16;4969254;28;20061;-89
2022/05/06 04:31:01;;;;;;;47.08;20.65;;;;;;;11.69;74.07;102437.16;4988623;28;20297;-89
2022/05/06 04:33:27;;;;;;;52.90;20.77;;;;;;;11.83;74.10;102451.06;4988534;28;20482;-89
2022/05/06 04:35:53;;;;;;;42.35;20.10;;;;;;;11.84;73.79;102446.63;4974307;28;20109;-88
2022/05/06 04:38:20;;;;;;;73.65;20.33;;;;;;;11.76;74.34;102449.41;4973336;28;20482;-88
2022/05/06 04:40:45;;;;;;;50.03;19.63;;;;;;;11.72;74.19;102439.78;4985357;28;20049;-89
2022/05/06 04:43:11;;;;;;;44.13;19.15;;;;;;;11.72;74.06;102435.34;4990667;28;20549;-88
2022/05/06 04:45:38;;;;;;;100.80;19.98;;;;;;;11.41;75.53;102445.63;4965604;28;20144;-89
2022/05/06 04:48:05;;;;;;;37.75;17.92;;;;;;;11.50;75.15;102461.34;4971706;28;20028;-87
2022/05/06 04:50:34;;;;;;;42.92;18.05;;;;;;;11.61;74.77;102466.47;4971039;28;20198;-88
2022/05/06 04:53:00;;;;;;;31.35;15.85;;;;;;;11.65;74.21;102454.88;4972608;28;20022;-88
2022/05/06 04:55:29;;;;;;;41.55;15.75;;;;;;;11.77;74.01;102474.13;4985029;28;20041;-88
2022/05/06 04:57:54;;;;;;;29.55;16.65;;;;;;;11.69;73.88;102459.22;4988368;28;20129;-88
2022/05/06 05:00:21;;;;;;;36.55;16.38;;;;;;;11.82;73.01;102475.81;4972107;28;20113;-89
2022/05/06 05:02:46;;;;;;;37.78;18.48;;;;;;;11.75;74.17;102461.78;4997992;28;20089;-89
2022/05/06 05:05:12;;;;;;;45.35;16.77;;;;;;;11.80;73.70;102461.69;4995872;28;20621;-89
2022/05/06 05:07:39;;;;;;;89.05;16.67;;;;;;;11.75;74.03;102471.53;4992954;28;20117;-88
2022/05/06 05:10:05;;;;;;;53.55;15.77;;;;;;;11.70;73.68;102481.31;4976599;28;20048;-88
2022/05/06 05:12:31;;;;;;;65.25;15.60;;;;;;;11.44;74.65;102472.06;4977371;28;20030;-88
2022/05/06 05:14:56;;;;;;;61.17;15.27;;;;;;;11.45;74.51;102476.44;4971735;28;20397;-88
2022/05/06 05:17:22;;;;;;;67.63;16.70;;;;;;;11.57;74.86;102483.31;4990209;28;20251;-88
2022/05/06 05:19:47;;;;;;;35.22;16.20;;;;;;;11.70;74.31;102492.81;4974575;28;20489;-88
2022/05/06 05:22:13;;;;;;;41.20;16.33;;;;;;;11.71;74.43;102486.59;4976733;28;20468;-88
2022/05/06 05:24:38;;;;;;;38.38;16.00;;;;;;;11.72;74.01;102490.13;4976104;28;20473;-89
2022/05/06 05:27:04;;;;;;;51.33;15.32;;;;;;;11.83;74.26;102495.22;4973111;28;20080;-88
2022/05/06 05:29:29;;;;;;;38.17;15.25;;;;;;;11.75;73.77;102479.47;4993229;28;20022;-90
2022/05/06 05:31:55;;;;;;;50.03;15.73;;;;;;;11.79;73.95;102489.06;4989035;28;20393;-89
2022/05/06 05:34:20;;;;;;;66.60;15.73;;;;;;;11.73;73.93;102483.91;4974473;28;20060;-89
2022/05/06 05:36:46;;;;;;;42.28;14.48;;;;;;;11.65;73.98;102491.09;4970238;28;20034;-88
2022/05/06 05:39:11;;;;;;;44.90;15.02;;;;;;;11.65;73.52;102489.31;4992439;28;20050;-89
2022/05/06 05:41:38;;;;;;;62.53;15.40;;;;;;;11.70;74.27;102494.53;4974023;28;20033;-88
2022/05/06 05:49:32;;;;;;;41.10;14.10;;;;;;;11.79;73.12;102496.16;4990509;28;20052;-89
2022/05/06 05:51:58;;;;;;;55.40;13.85;;;;;;;11.78;73.26;102486.47;4973052;28;20026;-90
2022/05/06 05:54:23;;;;;;;24.70;12.38;;;;;;;11.91;72.73;102502.13;4992562;28;20505;-89
2022/05/06 05:56:48;;;;;;;28.63;14.18;;;;;;;11.81;72.76;102487.28;4988519;28;20145;-89
2022/05/06 05:59:14;;;;;;;33.90;14.00;;;;;;;11.88;72.77;102491.59;4976476;28;20030;-89
2022/05/06 06:01:40;;;;;;;32.53;13.18;;;;;;;11.92;72.93;102482.69;4971169;28;20041;-88
2022/05/06 06:04:05;;;;;;;25.85;13.35;;;;;;;12.06;72.77;102486.84;4992454;28;20018;-89
2022/05/06 06:06:31;;;;;;;50.75;13.40;;;;;;;11.94;72.38;102482.66;4971000;28;20034;-89
2022/05/06 06:08:56;;;;;;;24.98;13.85;;;;;;;12.03;72.48;102487.78;4978756;28;20037;-88
2022/05/06 06:11:21;;;;;;;52.33;13.43;;;;;;;12.04;72.12;102489.53;4990599;28;20144;-88
2022/05/06 06:13:47;;;;;;;30.52;13.70;;;;;;;12.04;72.17;102493.97;4986622;28;20034;-90
2022/05/06 06:16:13;;;;;;;30.10;13.45;;;;;;;12.02;72.20;102488.66;4968910;28;20025;-87
2022/05/06 06:18:39;;;;;;;24.63;12.95;;;;;;;12.11;72.43;102496.44;4976127;28;20539;-88
2022/05/06 06:21:06;;;;;;;24.77;13.38;;;;;;;12.13;72.14;102493.78;4974663;28;20030;-88
2022/05/06 06:23:32;;;;;;;25.00;13.38;;;;;;;12.17;72.26;102488.38;4970859;28;20440;-88
2022/05/06 06:25:58;;;;;;;29.15;13.48;;;;;;;12.34;71.49;102495.97;4990902;28;20472;-88
2022/05/06 06:28:23;;;;;;;26.23;14.02;;;;;;;12.37;71.43;102493.25;4972901;28;20524;-87
2022/05/06 06:30:49;;;;;;;24.17;13.07;;;;;;;12.37;71.58;102493.25;4983357;28;20033;-88
2022/05/06 06:33:15;;;;;;;31.10;13.85;;;;;;;12.40;71.62;102482.59;4987391;28;20034;-87
2022/05/06 06:35:40;;;;;;;26.00;12.93;;;;;;;12.45;71.24;102486.03;4990979;28;20556;-88
2022/05/06 06:38:06;;;;;;;28.38;12.85;;;;;;;12.57;70.66;102495.47;4971900;28;20092;-88
2022/05/06 06:40:31;;;;;;;23.73;13.63;;;;;;;12.52;70.85;102476.13;4970462;28;20505;-88
2022/05/06 06:43:02;;;;;;;79.47;16.02;;;;;;;12.25;71.98;102482.91;4981185;28;20022;-88
2022/05/06 06:45:27;;;;;;;41.00;15.57;;;;;;;12.21;74.23;102479.44;4970856;28;20030;-87
2022/05/06 06:47:53;;;;;;;43.03;17.50;;;;;;;12.46;72.11;102493.06;4963113;28;20026;-88
2022/05/06 06:50:19;;;;;;;82.63;18.42;;;;;;;12.35;72.87;102499.50;4961418;28;20026;-88
2022/05/06 06:52:44;;;;;;;34.80;17.30;;;;;;;12.11;73.61;102488.50;4983172;28;20473;-88
2022/05/06 06:55:10;;;;;;;31.77;16.17;;;;;;;12.35;72.97;102499.50;4979539;28;20034;-87
2022/05/06 06:57:35;;;;;;;39.72;17.67;;;;;;;12.46;72.21;102479.81;4957762;28;20866;-87
2022/05/06 07:00:01;;;;;;;27.70;16.42;;;;;;;12.73;72.20;102501.34;4960148;28;20080;-88
2022/05/06 07:02:27;;;;;;;37.13;16.08;;;;;;;12.85;70.91;102503.69;4966219;28;20069;-88
2022/05/06 07:04:53;;;;;;;32.88;17.23;;;;;;;12.94;70.91;102502.63;4966446;28;20097;-87
2022/05/06 07:12:46;;;;;;;29.08;16.52;;;;;;;13.19;70.05;102530.31;4972407;28;20065;-88
2022/05/06 07:15:12;;;;;;;29.08;16.75;;;;;;;13.20;69.83;102520.59;4972117;28;20034;-88
2022/05/06 07:17:38;;;;;;;40.35;17.20;;;;;;;13.18;69.68;102517.94;4976719;28;20651;-88
2022/05/06 07:20:03;;;;;;;50.60;18.73;;;;;;;12.98;70.83;102526.41;4971322;28;20245;-88
2022/05/06 07:22:29;;;;;;;29.85;17.25;;;;;;;12.99;70.71;102503.38;4979760;28;20129;-86
2022/05/06 07:24:54;;;;;;;36.85;18.80;;;;;;;12.93;71.22;102524.75;4974718;28;20034;-88
2022/05/06 07:27:21;;;;;;;31.42;19.20;;;;;;;12.93;71.76;102535.38;4976599;28;20100;-88
2022/05/06 07:29:46;;;;;;;34.20;18.38;;;;;;;12.98;71.49;102531.72;4971498;28;20054;-87
2022/05/06 07:32:11;;;;;;;31.50;17.95;;;;;;;13.19;71.25;102540.94;4967297;28;20034;-88
2022/05/06 07:34:37;;;;;;;30.55;16.80;;;;;;;13.23;71.04;102540.00;4969999;28;20026;-90
2022/05/06 07:37:02;;;;;;;34.13;17.77;;;;;;;13.33;70.62;102558.38;4971135;28;20034;-86
2022/05/06 07:39:28;;;;;;;35.00;18.77;;;;;;;13.32;70.53;102540.69;4972358;28;20129;-87
2022/05/06 07:41:53;;;;;;;34.97;18.90;;;;;;;13.20;71.22;102549.81;4973097;28;20386;-88
2022/05/06 07:44:18;;;;;;;32.88;19.02;;;;;;;13.31;70.91;102539.81;4988385;28;20041;-87
2022/05/06 07:46:44;;;;;;;34.17;19.13;;;;;;;13.50;70.30;102556.19;4971907;28;20061;-88
2022/05/06 07:49:09;;;;;;;34.20;17.63;;;;;;;13.57;70.31;102547.16;4970984;28;20130;-88
2022/05/06 07:51:34;;;;;;;39.03;20.70;;;;;;;13.55;70.25;102569.34;4973860;28;20041;-88
2022/05/06 07:54:00;;;;;;;36.97;18.77;;;;;;;13.56;69.92;102550.69;4973852;28;20037;-87
2022/05/06 07:56:26;;;;;;;40.78;20.90;;;;;;;13.63;69.93;102567.38;4972882;28;20483;-88
2022/05/06 07:58:53;;;;;;;40.30;21.00;;;;;;;13.72;70.09;102570.69;4969942;28;20035;-89
2022/05/06 08:04:32;;;;;;;39.70;20.77;;;;;;;13.66;70.22;102557.56;4973611;28;20087;-88
2022/05/06 08:06:52;;;;;;;40.92;20.65;;;;;;;13.76;70.07;102567.03;4975674;28;20085;-89
2022/05/06 08:09:17;;;;;;;43.17;21.77;;;;;;;13.76;70.02;102555.53;4970774;28;20462;-87
2022/05/06 08:11:42;;;;;;;44.53;22.95;;;;;;;13.99;69.96;102566.44;4970835;28;20107;-87
2022/05/06 08:14:08;;;;;;;48.63;24.00;;;;;;;14.03;69.42;102568.09;4972118;28;20015;-87
2022/05/06 08:16:33;;;;;;;45.03;24.17;;;;;;;14.26;69.10;102574.53;4972861;28;20117;-87
2022/05/06 08:18:58;;;;;;;47.45;23.20;;;;;;;14.34;68.87;102572.56;4964640;28;20057;-87
2022/05/06 08:21:24;;;;;;;48.92;24.50;;;;;;;14.41;68.59;102578.56;4971305;28;20126;-88
2022/05/06 08:23:49;;;;;;;45.80;24.50;;;;;;;14.42;68.04;102564.38;4972877;28;20023;-87
2022/05/06 08:26:14;;;;;;;46.90;25.92;;;;;;;14.49;67.97;102576.59;4972004;28;20031;-87
2022/05/06 08:28:40;;;;;;;47.88;26.55;;;;;;;14.60;67.16;102566.53;4969234;28;20031;-87
2022/05/06 08:31:05;;;;;;;49.33;26.67;;;;;;;14.67;66.95;102556.56;4971410;28;20034;-86
2022/05/06 08:33:30;;;;;;;49.78;26.40;;;;;;;14.88;66.13;102553.25;4974219;28;20037;-87
2022/05/06 08:35:56;;;;;;;44.50;24.88;;;;;;;15.13;65.57;102550.69;4973093;28;20027;-87
2022/05/06 08:38:21;;;;;;;47.80;24.45;;;;;;;15.21;65.62;102559.31;4973000;28;20038;-87
2022/05/06 08:40:48;;;;;;;49.40;25.20;;;;;;;15.15;66.19;102554.16;4969931;28;20023;-87
2022/05/06 08:43:14;;;;;;;53.30;26.92;;;;;;;15.17;65.66;102555.00;4975745;28;20162;-89
2022/05/06 08:51:10;;;;;;;52.60;27.55;;;;;;;16.05;62.87;102547.63;4972725;28;20112;-87
2022/05/06 08:53:42;;;;;;;49.10;28.00;;;;;;;16.03;63.58;102550.31;4968470;28;20289;-88
2022/05/06 08:56:08;;;;;;;51.45;27.08;;;;;;;16.20;63.55;102536.38;4968948;28;20057;-88
2022/05/06 08:58:35;;;;;;;56.03;29.30;;;;;;;16.44;62.96;102541.72;4947842;28;21174;-87
2022/05/06 09:01:09;;;;;;;44.70;24.30;;;;;;;16.63;62.88;102550.78;4949866;28;20987;-87
2022/05/06 09:03:37;;;;;;;44.13;24.23;;;;;;;16.89;60.12;102547.16;4951139;28;20434;-87
2022/05/06 09:06:03;;;;;;;42.80;24.08;;;;;;;17.61;59.83;102536.16;4953280;28;20048;-87
2022/05/06 09:08:36;;;;;;;40.30;24.48;;;;;;;18.19;56.46;102548.84;4947977;28;20038;-88
2022/05/06 09:11:04;;;;;;;39.08;22.75;;;;;;;18.28;56.07;102549.31;4952055;28;20034;-87
2022/05/06 09:13:32;;;;;;;37.65;21.85;;;;;;;19.25;53.95;102532.19;4950931;28;20061;-87
2022/05/06 09:19:22;;;;;;;33.08;19.98;;;;;;;21.39;49.85;102542.16;4941503;28;20054;-88
2022/05/06 09:22:02;;;;;;;35.30;22.05;;;;;;;21.39;49.83;102538.59;4945077;28;20042;-88
2022/05/06 09:24:28;;;;;;;37.22;22.45;;;;;;;20.99;49.08;102521.19;4951860;28;20119;-87
2022/05/06 09:26:57;;;;;;;38.65;21.38;;;;;;;21.17;49.12;102533.59;4949025;28;20050;-88
2022/05/06 09:29:37;;;;;;;31.80;20.42;;;;;;;22.01;47.86;102541.16;4946613;28;21258;-87
2022/05/06 09:32:22;;;;;;;33.60;20.70;;;;;;;22.50;47.42;102533.59;4947128;28;20498;-88
2022/05/06 09:34:50;;;;;;;35.22;20.10;;;;;;;22.35;45.38;102531.91;4942835;28;20449;-86
2022/05/06 09:37:50;;;;;;;31.15;19.20;;;;;;;22.62;47.35;102534.66;4947270;28;20255;-86
2022/05/06 09:40:20;;;;;;;29.48;17.77;;;;;;;22.41;44.85;102537.75;4929645;29;20095;-86
2022/05/06 09:42:54;;;;;;;24.33;17.42;;;;;;;22.39;46.36;102528.03;4936975;28;20070;-86
2022/05/06 09:45:39;;;;;;;27.35;18.85;;;;;;;21.94;46.17;102527.22;4941156;28;20434;-87
2022/05/06 09:48:08;;;;;;;28.17;18.95;;;;;;;21.79;47.48;102520.06;4944954;28;20041;-86
2022/05/06 09:50:36;;;;;;;30.27;19.20;;;;;;;21.82;47.12;102523.47;4956445;28;20034;-85
2022/05/06 09:53:03;;;;;;;27.15;18.48;;;;;;;21.85;45.99;102522.38;4951507;28;20482;-86
2022/05/06 09:55:29;;;;;;;26.42;17.55;;;;;;;21.61;46.53;102505.91;4943131;28;20023;-86
2022/05/06 09:57:59;;;;;;;24.23;17.15;;;;;;;22.00;46.83;102524.13;4955524;28;20065;-86
2022/05/06 10:00:25;;;;;;;25.80;17.15;;;;;;;21.65;45.15;102527.16;4958885;28;20043;-85
2022/05/06 10:02:51;;;;;;;26.88;17.35;;;;;;;21.22;48.02;102517.19;4961416;28;20031;-85
2022/05/06 10:05:16;;;;;;;26.73;17.80;;;;;;;21.72;47.13;102524.09;4958456;28;20516;-85
2022/05/06 10:07:46;;;;;;;26.25;16.23;;;;;;;21.83;46.14;102525.19;4961326;28;20041;-87
2022/05/06 10:10:25;;;;;;;27.92;17.67;;;;;;;22.39;46.86;102528.91;4954969;28;20394;-85
2022/05/06 10:13:05;;;;;;;25.70;16.48;;;;;;;22.68;45.92;102520.78;4970606;28;20023;-86
2022/05/06 10:15:31;;;;;;;20.88;14.30;;;;;;;22.89;42.74;102511.31;4957302;28;20118;-86
2022/05/06 10:17:59;;;;;;;18.60;13.68;;;;;;;23.07;43.41;102517.31;4965509;28;20108;-86
2022/05/06 10:20:37;;;;;;;26.80;14.63;;;;;;;23.37;43.30;102514.41;4960848;28;20035;-86
2022/05/06 10:23:09;;;;;;;20.63;14.48;;;;;;;23.33;42.26;102510.19;4962402;28;20581;-86
2022/05/06 10:25:45;;;;;;;20.33;14.75;;;;;;;23.58;42.65;102501.28;4962804;28;20034;-85
2022/05/06 10:34:10;;;;;;;18.35;12.43;;;;;;;23.58;40.42;102503.13;4968694;28;20045;-86
2022/05/06 10:36:41;;;;;;;18.88;13.65;;;;;;;23.86;40.47;102502.97;4964622;28;20039;-85
2022/05/06 10:39:18;;;;;;;19.45;14.23;;;;;;;23.33;41.40;102496.69;4971448;28;20027;-85
2022/05/06 10:42:08;;;;;;;19.60;14.60;;;;;;;23.07;42.97;102494.88;4968164;28;20034;-87
2022/05/06 10:44:50;;;;;;;19.90;14.32;;;;;;;22.65;43.82;102480.53;4971350;28;20477;-86
2022/05/06 10:47:15;;;;;;;19.77;13.55;;;;;;;22.86;41.76;102489.06;4970223;28;20109;-86
2022/05/06 10:49:42;;;;;;;21.23;13.27;;;;;;;23.56;41.75;102487.03;4967119;28;20129;-86
2022/05/06 10:52:13;;;;;;;20.33;13.25;;;;;;;23.34;40.96;102478.66;4960919;28;20057;-86
2022/05/06 10:54:40;;;;;;;15.13;10.60;;;;;;;23.53;39.97;102480.97;4957315;28;20764;-86
2022/05/06 10:57:07;;;;;;;15.15;10.55;;;;;;;24.05;38.94;102475.50;4983763;28;20051;-86
2022/05/06 10:59:51;;;;;;;14.63;10.85;;;;;;;24.59;39.95;102482.47;4972144;28;20042;-86
2022/05/06 11:02:17;;;;;;;20.10;11.50;;;;;;;24.78;37.88;102474.72;4965032;28;20065;-86
2022/05/06 11:04:53;;;;;;;14.25;8.93;;;;;;;24.86;37.80;102477.72;4961841;28;20038;-86
2022/05/06 11:07:19;;;;;;;11.77;8.68;;;;;;;24.76;36.47;102474.00;4968183;28;20046;-88
2022/05/06 11:09:45;;;;;;;13.18;9.52;;;;;;;25.04;35.29;102480.91;4976366;28;20509;-86
2022/05/06 11:12:10;;;;;;;12.48;8.73;;;;;;;25.36;35.58;102469.47;4969941;28;20076;-87
2022/05/06 11:14:36;;;;;;;12.57;9.57;;;;;;;25.79;36.10;102464.31;4966869;28;20026;-87
2022/05/06 11:17:22;;;;;;;11.63;8.60;;;;;;;26.29;35.64;102472.09;4964573;28;20363;-87
2022/05/06 11:19:47;;;;;;;11.85;8.73;;;;;;;25.90;33.59;102456.19;4963441;28;20125;-86
2022/05/06 11:22:13;;;;;;;12.73;8.75;;;;;;;25.66;33.98;102460.81;4969729;28;20474;-87
2022/05/06 11:24:38;;;;;;;12.63;8.48;;;;;;;25.78;33.80;102461.72;4966867;28;20035;-86
2022/05/06 11:27:14;;;;;;;12.52;8.93;;;;;;;25.89;35.37;102448.19;4969881;28;20034;-88
2022/05/06 11:29:57;;;;;;;9.57;6.97;;;;;;;25.83;34.62;102460.34;4963374;28;20053;-88
2022/05/06 11:32:27;;;;;;;8.77;5.75;;;;;;;26.11;33.34;102447.31;4972184;28;20053;-87
2022/05/06 11:35:06;;;;;;;6.68;4.10;;;;;;;26.54;33.24;102442.00;4971479;28;20031;-87
2022/05/06 11:37:34;;;;;;;9.32;7.07;;;;;;;26.66;32.50;102448.25;4965556;28;20057;-87
2022/05/06 11:42:44;;;;;;;9.13;7.43;;;;;;;26.80;31.89;102449.81;4968965;28;20094;-87
2022/05/06 11:48:11;;;;;;;11.80;8.55;;;;;;;26.70;33.50;102430.75;4970766;28;20074;-87
2022/05/06 11:50:38;;;;;;;11.52;8.05;;;;;;;26.85;31.67;102444.88;4970573;28;20027;-87
2022/05/06 11:53:09;;;;;;;13.70;8.70;;;;;;;26.94;32.16;102444.09;4971606;28;20029;-86